Monongahela, Pennsylvania
Current Conditions -  °F | °C
As of 7:53 AM on Friday 31 Oct 2014 (Local Time) from KAGC Reporting Station
Overcast Overcast  
Wind Chill: 42°   Ceiling: 4900
Heat Index: 44°   Visibility: 10mi
Dew Point: 34°   Wind: 5mph
Humidity: 68%   Direction: 180°S
Pressure: 29.95"   Gusts: NA
Location:  40.2°N, 79.93°W
Report Text: KAGC 311153Z 18004KT 10SM OVC049 07/01 A2995 RMK AO2 SLP150 T00670011 10078 20067 56008
Loading
Personal Weather Stations






























Interactive Weather Map
Tropical Storm Tracking
New forecast layout! Learn more

10-Day Weather Forecast

Advertisements
Track Severe Weather on mobile